sensor_id;sensor_type;location;lat;lon;timestamp;noise_LAeq;noise_LA_min;noise_LA_max;noise_LA01;noise_LA95
60872;Laerm;46714;50.118;14.462;2023-11-21T00:02:25;66.42;51.55;77.56;;
60872;Laerm;46714;50.118;14.462;2023-11-21T00:04:50;64.56;43.39;75.15;;
60872;Laerm;46714;50.118;14.462;2023-11-21T00:07:16;66.02;49.30;73.96;;
60872;Laerm;46714;50.118;14.462;2023-11-21T00:09:42;64.31;46.55;73.59;;
60872;Laerm;46714;50.118;14.462;2023-11-21T00:12:08;64.98;44.27;77.23;;
60872;Laerm;46714;50.118;14.462;2023-11-21T00:14:39;67.40;49.72;79.26;;
60872;Laerm;46714;50.118;14.462;2023-11-21T00:17:05;64.82;43.39;74.51;;
60872;Laerm;46714;50.118;14.462;2023-11-21T00:19:31;65.34;45.45;75.17;;
60872;Laerm;46714;50.118;14.462;2023-11-21T00:21:57;65.78;55.55;76.72;;
60872;Laerm;46714;50.118;14.462;2023-11-21T00:24:23;65.27;50.76;78.25;;
60872;Laerm;46714;50.118;14.462;2023-11-21T00:26:50;66.67;54.30;75.87;;
60872;Laerm;46714;50.118;14.462;2023-11-21T00:29:15;64.13;45.80;72.47;;
60872;Laerm;46714;50.118;14.462;2023-11-21T00:31:43;64.21;45.33;76.94;;
60872;Laerm;46714;50.118;14.462;2023-11-21T00:34:08;65.20;43.99;79.71;;
60872;Laerm;46714;50.118;14.462;2023-11-21T00:36:34;65.45;44.97;74.73;;
60872;Laerm;46714;50.118;14.462;2023-11-21T00:38:59;63.97;43.39;76.54;;
60872;Laerm;46714;50.118;14.462;2023-11-21T00:41:25;64.82;44.69;75.09;;
60872;Laerm;46714;50.118;14.462;2023-11-21T00:43:53;62.34;46.48;72.89;;
60872;Laerm;46714;50.118;14.462;2023-11-21T00:46:20;67.15;44.51;80.17;;
60872;Laerm;46714;50.118;14.462;2023-11-21T00:48:45;64.44;44.90;76.50;;
60872;Laerm;46714;50.118;14.462;2023-11-21T00:51:12;64.73;49.89;73.31;;
60872;Laerm;46714;50.118;14.462;2023-11-21T00:53:37;61.38;46.97;74.26;;
60872;Laerm;46714;50.118;14.462;2023-11-21T00:56:03;65.11;47.84;74.25;;
60872;Laerm;46714;50.118;14.462;2023-11-21T00:58:28;64.23;46.13;73.37;;
60872;Laerm;46714;50.118;14.462;2023-11-21T01:00:54;63.66;44.31;74.69;;
60872;Laerm;46714;50.118;14.462;2023-11-21T01:03:19;62.56;44.80;73.85;;
60872;Laerm;46714;50.118;14.462;2023-11-21T01:05:45;64.95;48.13;75.61;;
60872;Laerm;46714;50.118;14.462;2023-11-21T01:08:11;64.08;43.86;79.79;;
60872;Laerm;46714;50.118;14.462;2023-11-21T01:10:36;65.96;51.26;75.06;;
60872;Laerm;46714;50.118;14.462;2023-11-21T01:13:02;65.74;49.95;73.17;;
60872;Laerm;46714;50.118;14.462;2023-11-21T01:15:30;64.19;47.83;74.70;;
60872;Laerm;46714;50.118;14.462;2023-11-21T01:17:56;62.55;42.29;75.52;;
60872;Laerm;46714;50.118;14.462;2023-11-21T01:20:21;64.00;43.86;76.52;;
60872;Laerm;46714;50.118;14.462;2023-11-21T01:22:46;63.29;43.09;77.55;;
60872;Laerm;46714;50.118;14.462;2023-11-21T01:25:14;62.37;40.71;73.10;;
60872;Laerm;46714;50.118;14.462;2023-11-21T01:27:41;65.46;45.01;75.32;;
60872;Laerm;46714;50.118;14.462;2023-11-21T01:30:07;63.71;41.68;77.59;;
60872;Laerm;46714;50.118;14.462;2023-11-21T01:32:34;66.08;41.96;81.23;;
60872;Laerm;46714;50.118;14.462;2023-11-21T01:34:59;65.34;45.51;74.87;;
60872;Laerm;46714;50.118;14.462;2023-11-21T01:37:25;63.65;47.77;74.35;;
60872;Laerm;46714;50.118;14.462;2023-11-21T01:39:55;63.71;44.19;74.18;;
60872;Laerm;46714;50.118;14.462;2023-11-21T01:42:21;60.81;43.24;71.06;;
60872;Laerm;46714;50.118;14.462;2023-11-21T01:44:46;63.73;42.16;72.66;;
60872;Laerm;46714;50.118;14.462;2023-11-21T01:47:13;64.22;47.72;74.34;;
60872;Laerm;46714;50.118;14.462;2023-11-21T01:49:39;65.95;48.02;77.75;;
60872;Laerm;46714;50.118;14.462;2023-11-21T01:52:05;61.68;46.45;70.86;;
60872;Laerm;46714;50.118;14.462;2023-11-21T01:54:32;65.57;48.81;74.17;;
60872;Laerm;46714;50.118;14.462;2023-11-21T01:56:58;67.59;43.90;79.07;;
60872;Laerm;46714;50.118;14.462;2023-11-21T01:59:34;63.27;43.14;73.95;;
60872;Laerm;46714;50.118;14.462;2023-11-21T02:02:00;63.33;41.96;72.69;;
60872;Laerm;46714;50.118;14.462;2023-11-21T02:04:25;62.84;42.59;74.20;;
60872;Laerm;46714;50.118;14.462;2023-11-21T02:06:51;66.74;44.94;79.68;;
60872;Laerm;46714;50.118;14.462;2023-11-21T02:09:16;64.09;45.48;73.37;;
60872;Laerm;46714;50.118;14.462;2023-11-21T02:11:43;63.70;45.17;72.60;;
60872;Laerm;46714;50.118;14.462;2023-11-21T02:14:09;65.74;52.89;75.72;;
60872;Laerm;46714;50.118;14.462;2023-11-21T02:16:35;64.66;49.08;75.66;;
60872;Laerm;46714;50.118;14.462;2023-11-21T02:19:02;65.67;46.69;75.94;;
60872;Laerm;46714;50.118;14.462;2023-11-21T02:21:28;66.97;51.61;78.54;;
60872;Laerm;46714;50.118;14.462;2023-11-21T02:23:55;65.90;43.58;77.27;;
60872;Laerm;46714;50.118;14.462;2023-11-21T02:26:21;65.22;51.92;73.44;;
60872;Laerm;46714;50.118;14.462;2023-11-21T02:28:46;65.73;42.47;76.20;;
60872;Laerm;46714;50.118;14.462;2023-11-21T02:31:12;62.26;41.89;73.19;;
60872;Laerm;46714;50.118;14.462;2023-11-21T02:33:37;65.53;47.30;76.34;;
60872;Laerm;46714;50.118;14.462;2023-11-21T02:36:03;65.50;43.72;77.47;;
60872;Laerm;46714;50.118;14.462;2023-11-21T02:38:29;66.78;54.93;77.89;;
60872;Laerm;46714;50.118;14.462;2023-11-21T02:40:55;66.82;50.26;76.57;;
60872;Laerm;46714;50.118;14.462;2023-11-21T02:43:20;67.09;51.36;77.94;;
60872;Laerm;46714;50.118;14.462;2023-11-21T02:45:46;65.09;45.80;74.80;;
60872;Laerm;46714;50.118;14.462;2023-11-21T02:48:11;63.23;43.34;72.75;;
60872;Laerm;46714;50.118;14.462;2023-11-21T02:50:36;64.22;49.90;77.44;;
60872;Laerm;46714;50.118;14.462;2023-11-21T02:53:03;67.35;51.77;78.21;;
60872;Laerm;46714;50.118;14.462;2023-11-21T02:55:29;66.38;50.65;77.45;;
60872;Laerm;46714;50.118;14.462;2023-11-21T02:57:56;65.67;45.45;74.11;;
60872;Laerm;46714;50.118;14.462;2023-11-21T03:00:24;65.64;46.89;78.29;;
60872;Laerm;46714;50.118;14.462;2023-11-21T03:02:51;66.86;48.43;79.78;;
60872;Laerm;46714;50.118;14.462;2023-11-21T03:05:16;68.12;45.33;79.95;;
60872;Laerm;46714;50.118;14.462;2023-11-21T03:07:42;66.01;48.88;76.29;;
60872;Laerm;46714;50.118;14.462;2023-11-21T03:10:08;67.20;56.39;77.81;;
60872;Laerm;46714;50.118;14.462;2023-11-21T03:12:37;65.16;54.43;74.98;;
60872;Laerm;46714;50.118;14.462;2023-11-21T03:15:07;67.03;49.02;78.55;;
60872;Laerm;46714;50.118;14.462;2023-11-21T03:17:33;64.97;53.57;73.67;;
60872;Laerm;46714;50.118;14.462;2023-11-21T03:20:01;67.73;53.60;79.31;;
60872;Laerm;46714;50.118;14.462;2023-11-21T03:22:28;67.62;49.87;79.17;;
60872;Laerm;46714;50.118;14.462;2023-11-21T03:24:53;67.61;50.08;76.84;;
60872;Laerm;46714;50.118;14.462;2023-11-21T03:27:18;66.92;55.05;76.09;;
60872;Laerm;46714;50.118;14.462;2023-11-21T03:29:44;69.37;50.79;87.81;;
60872;Laerm;46714;50.118;14.462;2023-11-21T03:32:12;66.51;46.93;75.08;;
60872;Laerm;46714;50.118;14.462;2023-11-21T03:34:56;69.01;51.58;82.04;;
60872;Laerm;46714;50.118;14.462;2023-11-21T03:37:22;69.10;60.74;78.98;;
60872;Laerm;46714;50.118;14.462;2023-11-21T03:39:47;69.28;58.77;80.60;;
60872;Laerm;46714;50.118;14.462;2023-11-21T03:42:13;67.60;52.51;78.24;;
60872;Laerm;46714;50.118;14.462;2023-11-21T03:44:38;65.06;49.16;72.57;;
60872;Laerm;46714;50.118;14.462;2023-11-21T03:47:03;69.97;58.52;79.69;;
60872;Laerm;46714;50.118;14.462;2023-11-21T03:49:29;69.66;59.57;80.67;;
60872;Laerm;46714;50.118;14.462;2023-11-21T03:51:55;68.11;53.35;77.74;;
60872;Laerm;46714;50.118;14.462;2023-11-21T03:54:21;68.69;59.13;78.43;;
60872;Laerm;46714;50.118;14.462;2023-11-21T03:56:46;70.21;61.76;79.21;;
60872;Laerm;46714;50.118;14.462;2023-11-21T03:59:12;67.99;56.98;77.54;;
60872;Laerm;46714;50.118;14.462;2023-11-21T04:01:37;68.92;57.39;76.01;;
60872;Laerm;46714;50.118;14.462;2023-11-21T04:04:03;68.86;58.61;80.94;;
60872;Laerm;46714;50.118;14.462;2023-11-21T04:06:29;67.89;57.91;74.52;;
60872;Laerm;46714;50.118;14.462;2023-11-21T04:08:54;69.11;57.02;77.51;;
60872;Laerm;46714;50.118;14.462;2023-11-21T04:11:20;69.35;60.48;80.74;;
60872;Laerm;46714;50.118;14.462;2023-11-21T04:13:45;69.99;62.90;76.85;;
60872;Laerm;46714;50.118;14.462;2023-11-21T04:16:12;70.05;59.44;78.66;;
60872;Laerm;46714;50.118;14.462;2023-11-21T04:18:38;69.72;59.74;75.68;;
60872;Laerm;46714;50.118;14.462;2023-11-21T04:21:07;71.11;62.86;79.74;;
60872;Laerm;46714;50.118;14.462;2023-11-21T04:23:33;70.23;60.96;77.39;;
60872;Laerm;46714;50.118;14.462;2023-11-21T04:25:59;71.92;63.52;81.53;;
60872;Laerm;46714;50.118;14.462;2023-11-21T04:28:25;69.89;63.91;76.67;;
60872;Laerm;46714;50.118;14.462;2023-11-21T04:30:50;70.56;61.53;76.18;;
60872;Laerm;46714;50.118;14.462;2023-11-21T04:33:16;72.69;63.71;78.59;;
60872;Laerm;46714;50.118;14.462;2023-11-21T04:35:41;70.76;63.86;76.81;;
60872;Laerm;46714;50.118;14.462;2023-11-21T04:38:07;71.66;66.69;75.80;;
60872;Laerm;46714;50.118;14.462;2023-11-21T04:40:32;73.01;65.92;81.13;;
60872;Laerm;46714;50.118;14.462;2023-11-21T04:42:58;72.10;65.22;80.24;;
60872;Laerm;46714;50.118;14.462;2023-11-21T04:45:23;73.79;64.46;92.49;;
60872;Laerm;46714;50.118;14.462;2023-11-21T04:47:48;72.59;66.09;79.06;;
60872;Laerm;46714;50.118;14.462;2023-11-21T04:50:14;72.64;64.46;79.71;;
60872;Laerm;46714;50.118;14.462;2023-11-21T04:52:39;72.41;67.68;76.84;;
60872;Laerm;46714;50.118;14.462;2023-11-21T04:55:05;72.31;67.03;76.93;;
60872;Laerm;46714;50.118;14.462;2023-11-21T04:57:32;72.18;67.00;77.15;;
60872;Laerm;46714;50.118;14.462;2023-11-21T04:59:58;72.37;65.80;83.86;;
60872;Laerm;46714;50.118;14.462;2023-11-21T05:02:23;72.24;66.11;78.56;;
60872;Laerm;46714;50.118;14.462;2023-11-21T05:04:48;72.53;66.85;77.61;;
60872;Laerm;46714;50.118;14.462;2023-11-21T05:07:14;72.56;65.85;78.10;;
60872;Laerm;46714;50.118;14.462;2023-11-21T05:09:43;73.31;68.33;78.06;;
60872;Laerm;46714;50.118;14.462;2023-11-21T05:12:12;72.99;65.62;78.87;;
60872;Laerm;46714;50.118;14.462;2023-11-21T05:14:38;73.45;66.48;79.09;;
60872;Laerm;46714;50.118;14.462;2023-11-21T05:17:03;72.70;67.03;77.78;;
60872;Laerm;46714;50.118;14.462;2023-11-21T05:19:29;72.34;65.42;78.38;;
60872;Laerm;46714;50.118;14.462;2023-11-21T05:21:55;73.42;68.24;80.31;;
60872;Laerm;46714;50.118;14.462;2023-11-21T05:24:20;75.65;67.45;90.63;;
60872;Laerm;46714;50.118;14.462;2023-11-21T05:26:45;78.27;63.82;100.40;;
60872;Laerm;46714;50.118;14.462;2023-11-21T05:29:11;73.54;64.96;81.91;;
60872;Laerm;46714;50.118;14.462;2023-11-21T05:31:36;73.43;67.61;79.93;;
60872;Laerm;46714;50.118;14.462;2023-11-21T05:34:03;73.59;66.01;78.66;;
60872;Laerm;46714;50.118;14.462;2023-11-21T05:36:28;73.84;66.68;79.51;;
60872;Laerm;46714;50.118;14.462;2023-11-21T05:38:54;73.24;64.38;78.50;;
60872;Laerm;46714;50.118;14.462;2023-11-21T05:41:19;73.25;68.51;80.19;;
60872;Laerm;46714;50.118;14.462;2023-11-21T05:43:45;73.67;68.50;79.57;;
60872;Laerm;46714;50.118;14.462;2023-11-21T05:46:10;73.87;67.26;81.16;;
60872;Laerm;46714;50.118;14.462;2023-11-21T05:48:36;73.56;62.20;82.50;;
60872;Laerm;46714;50.118;14.462;2023-11-21T05:51:06;73.33;61.02;81.20;;
60872;Laerm;46714;50.118;14.462;2023-11-21T05:53:31;74.40;64.35;82.38;;
60872;Laerm;46714;50.118;14.462;2023-11-21T05:55:57;74.04;69.77;80.04;;
60872;Laerm;46714;50.118;14.462;2023-11-21T05:58:22;73.60;65.97;79.95;;
60872;Laerm;46714;50.118;14.462;2023-11-21T06:00:48;73.75;69.03;78.76;;
60872;Laerm;46714;50.118;14.462;2023-11-21T06:03:13;75.44;66.67;98.04;;
60872;Laerm;46714;50.118;14.462;2023-11-21T06:05:39;73.10;65.13;80.09;;
60872;Laerm;46714;50.118;14.462;2023-11-21T06:08:04;73.80;64.74;81.20;;
60872;Laerm;46714;50.118;14.462;2023-11-21T06:10:29;72.54;62.70;78.93;;
60872;Laerm;46714;50.118;14.462;2023-11-21T06:12:55;72.64;65.24;84.00;;
60872;Laerm;46714;50.118;14.462;2023-11-21T06:15:21;76.04;68.14;88.60;;
60872;Laerm;46714;50.118;14.462;2023-11-21T06:17:48;73.95;69.86;79.54;;
60872;Laerm;46714;50.118;14.462;2023-11-21T06:20:17;77.48;65.13;96.24;;
60872;Laerm;46714;50.118;14.462;2023-11-21T06:22:48;72.77;66.67;76.81;;
60872;Laerm;46714;50.118;14.462;2023-11-21T06:25:14;73.90;67.48;81.48;;
60872;Laerm;46714;50.118;14.462;2023-11-21T06:27:44;74.44;67.53;89.30;;
60872;Laerm;46714;50.118;14.462;2023-11-21T06:30:10;73.99;67.53;78.63;;
60872;Laerm;46714;50.118;14.462;2023-11-21T06:32:37;75.18;63.29;93.04;;
60872;Laerm;46714;50.118;14.462;2023-11-21T06:35:03;76.09;61.11;96.30;;
60872;Laerm;46714;50.118;14.462;2023-11-21T06:37:29;73.96;68.89;80.25;;
60872;Laerm;46714;50.118;14.462;2023-11-21T06:39:56;82.05;68.88;101.03;;
60872;Laerm;46714;50.118;14.462;2023-11-21T06:42:22;73.62;66.76;79.96;;
60872;Laerm;46714;50.118;14.462;2023-11-21T06:44:47;73.20;64.57;79.68;;
60872;Laerm;46714;50.118;14.462;2023-11-21T06:47:14;74.45;67.79;81.31;;
60872;Laerm;46714;50.118;14.462;2023-11-21T06:49:40;74.08;67.55;82.12;;
60872;Laerm;46714;50.118;14.462;2023-11-21T06:52:06;73.06;68.33;79.03;;
60872;Laerm;46714;50.118;14.462;2023-11-21T06:54:31;73.76;69.14;79.97;;
60872;Laerm;46714;50.118;14.462;2023-11-21T06:56:58;74.08;69.91;78.94;;
60872;Laerm;46714;50.118;14.462;2023-11-21T06:59:23;74.92;65.04;89.29;;
60872;Laerm;46714;50.118;14.462;2023-11-21T07:01:49;75.81;66.97;92.85;;
60872;Laerm;46714;50.118;14.462;2023-11-21T07:04:14;73.32;65.11;79.48;;
60872;Laerm;46714;50.118;14.462;2023-11-21T07:06:40;82.17;70.47;101.28;;
60872;Laerm;46714;50.118;14.462;2023-11-21T07:09:06;73.57;65.93;77.70;;
60872;Laerm;46714;50.118;14.462;2023-11-21T07:11:33;73.19;64.49;78.56;;
60872;Laerm;46714;50.118;14.462;2023-11-21T07:13:59;74.12;66.88;79.23;;
60872;Laerm;46714;50.118;14.462;2023-11-21T07:16:24;81.38;68.34;97.83;;
60872;Laerm;46714;50.118;14.462;2023-11-21T07:18:50;77.46;69.54;96.67;;
60872;Laerm;46714;50.118;14.462;2023-11-21T07:21:16;73.31;66.23;77.28;;
60872;Laerm;46714;50.118;14.462;2023-11-21T07:23:41;78.75;67.33;98.86;;
60872;Laerm;46714;50.118;14.462;2023-11-21T07:26:07;74.01;69.57;82.16;;
60872;Laerm;46714;50.118;14.462;2023-11-21T07:28:35;76.60;64.86;93.60;;
60872;Laerm;46714;50.118;14.462;2023-11-21T07:31:01;72.93;67.42;78.60;;
60872;Laerm;46714;50.118;14.462;2023-11-21T07:33:26;75.74;66.83;97.93;;
60872;Laerm;46714;50.118;14.462;2023-11-21T07:35:52;73.92;70.09;77.76;;
60872;Laerm;46714;50.118;14.462;2023-11-21T07:38:17;73.43;66.68;79.89;;
60872;Laerm;46714;50.118;14.462;2023-11-21T07:40:43;74.40;70.00;81.05;;
60872;Laerm;46714;50.118;14.462;2023-11-21T07:43:08;76.23;69.73;91.15;;
60872;Laerm;46714;50.118;14.462;2023-11-21T07:45:35;83.24;69.06;106.30;;
60872;Laerm;46714;50.118;14.462;2023-11-21T07:48:01;73.66;67.88;79.58;;
60872;Laerm;46714;50.118;14.462;2023-11-21T07:50:28;73.77;64.97;80.59;;
60872;Laerm;46714;50.118;14.462;2023-11-21T07:52:54;72.99;67.67;77.89;;
60872;Laerm;46714;50.118;14.462;2023-11-21T07:55:20;74.22;66.13;83.99;;
60872;Laerm;46714;50.118;14.462;2023-11-21T07:57:45;73.22;65.37;77.55;;
60872;Laerm;46714;50.118;14.462;2023-11-21T08:00:11;73.65;64.80;79.54;;
60872;Laerm;46714;50.118;14.462;2023-11-21T08:02:40;75.07;66.21;91.93;;
60872;Laerm;46714;50.118;14.462;2023-11-21T08:05:11;73.62;68.03;79.27;;
60872;Laerm;46714;50.118;14.462;2023-11-21T08:07:36;72.48;63.02;80.66;;
60872;Laerm;46714;50.118;14.462;2023-11-21T08:10:02;72.49;61.76;78.42;;
60872;Laerm;46714;50.118;14.462;2023-11-21T08:12:30;73.89;66.51;85.74;;
60872;Laerm;46714;50.118;14.462;2023-11-21T08:14:55;73.67;67.27;82.16;;
60872;Laerm;46714;50.118;14.462;2023-11-21T08:17:20;76.77;67.96;97.72;;
60872;Laerm;46714;50.118;14.462;2023-11-21T08:19:46;73.32;67.14;77.68;;
60872;Laerm;46714;50.118;14.462;2023-11-21T08:22:15;76.35;64.24;94.79;;
60872;Laerm;46714;50.118;14.462;2023-11-21T08:24:42;78.70;65.55;99.39;;
60872;Laerm;46714;50.118;14.462;2023-11-21T08:27:07;74.05;68.01;81.26;;
60872;Laerm;46714;50.118;14.462;2023-11-21T08:29:33;73.54;66.33;81.19;;
60872;Laerm;46714;50.118;14.462;2023-11-21T08:31:59;72.50;65.01;76.74;;
60872;Laerm;46714;50.118;14.462;2023-11-21T08:34:25;74.01;66.73;82.14;;
60872;Laerm;46714;50.118;14.462;2023-11-21T08:36:50;74.32;70.38;78.26;;
60872;Laerm;46714;50.118;14.462;2023-11-21T08:39:16;73.61;67.66;77.60;;
60872;Laerm;46714;50.118;14.462;2023-11-21T08:41:44;75.08;69.79;90.36;;
60872;Laerm;46714;50.118;14.462;2023-11-21T08:44:09;79.86;67.03;101.84;;
60872;Laerm;46714;50.118;14.462;2023-11-21T08:46:36;73.90;66.70;82.21;;
60872;Laerm;46714;50.118;14.462;2023-11-21T08:49:03;76.22;68.63;90.59;;
60872;Laerm;46714;50.118;14.462;2023-11-21T08:51:28;73.81;67.22;80.90;;
60872;Laerm;46714;50.118;14.462;2023-11-21T08:53:54;75.03;71.00;81.96;;
60872;Laerm;46714;50.118;14.462;2023-11-21T08:56:19;75.08;71.60;82.30;;
60872;Laerm;46714;50.118;14.462;2023-11-21T08:58:45;74.90;66.93;84.31;;
60872;Laerm;46714;50.118;14.462;2023-11-21T09:01:12;73.84;69.22;78.85;;
60872;Laerm;46714;50.118;14.462;2023-11-21T09:03:38;74.12;68.37;78.78;;
60872;Laerm;46714;50.118;14.462;2023-11-21T09:06:03;75.69;70.68;82.26;;
60872;Laerm;46714;50.118;14.462;2023-11-21T09:08:29;75.96;70.67;90.66;;
60872;Laerm;46714;50.118;14.462;2023-11-21T09:10:55;74.67;68.18;79.76;;
60872;Laerm;46714;50.118;14.462;2023-11-21T09:13:20;74.94;71.36;79.02;;
60872;Laerm;46714;50.118;14.462;2023-11-21T09:15:46;75.68;68.57;91.40;;
60872;Laerm;46714;50.118;14.462;2023-11-21T09:18:14;75.28;69.42;81.00;;
60872;Laerm;46714;50.118;14.462;2023-11-21T09:20:41;74.70;70.68;80.55;;
60872;Laerm;46714;50.118;14.462;2023-11-21T09:23:06;74.97;67.97;80.29;;
60872;Laerm;46714;50.118;14.462;2023-11-21T09:25:32;74.93;71.24;80.29;;
60872;Laerm;46714;50.118;14.462;2023-11-21T09:27:58;74.74;68.96;81.03;;
60872;Laerm;46714;50.118;14.462;2023-11-21T09:30:23;73.99;65.92;78.92;;
60872;Laerm;46714;50.118;14.462;2023-11-21T09:32:52;76.35;68.53;97.11;;
60872;Laerm;46714;50.118;14.462;2023-11-21T09:35:18;74.33;70.24;78.30;;
60872;Laerm;46714;50.118;14.462;2023-11-21T09:37:46;74.94;70.18;78.75;;
60872;Laerm;46714;50.118;14.462;2023-11-21T09:40:12;74.71;70.41;82.83;;
60872;Laerm;46714;50.118;14.462;2023-11-21T09:42:40;75.04;71.19;83.07;;
60872;Laerm;46714;50.118;14.462;2023-11-21T09:45:15;75.42;70.63;82.53;;
60872;Laerm;46714;50.118;14.462;2023-11-21T09:47:43;75.43;69.37;84.14;;
60872;Laerm;46714;50.118;14.462;2023-11-21T09:50:09;75.07;68.91;88.02;;
60872;Laerm;46714;50.118;14.462;2023-11-21T09:52:49;74.90;70.01;81.57;;
60872;Laerm;46714;50.118;14.462;2023-11-21T09:55:18;74.87;69.66;80.81;;
60872;Laerm;46714;50.118;14.462;2023-11-21T09:57:47;74.88;66.96;79.91;;
60872;Laerm;46714;50.118;14.462;2023-11-21T10:00:14;74.41;68.92;81.63;;
60872;Laerm;46714;50.118;14.462;2023-11-21T10:02:43;74.44;69.79;80.47;;
60872;Laerm;46714;50.118;14.462;2023-11-21T10:05:09;75.13;70.70;83.11;;
60872;Laerm;46714;50.118;14.462;2023-11-21T10:07:35;74.32;68.55;78.59;;
60872;Laerm;46714;50.118;14.462;2023-11-21T10:10:01;74.83;69.69;81.33;;
60872;Laerm;46714;50.118;14.462;2023-11-21T10:12:28;74.28;68.47;77.80;;
60872;Laerm;46714;50.118;14.462;2023-11-21T10:14:57;74.66;70.06;80.41;;
60872;Laerm;46714;50.118;14.462;2023-11-21T10:17:23;75.42;70.41;84.49;;
60872;Laerm;46714;50.118;14.462;2023-11-21T10:19:52;74.47;68.39;78.37;;
60872;Laerm;46714;50.118;14.462;2023-11-21T10:22:19;75.03;70.20;82.30;;
60872;Laerm;46714;50.118;14.462;2023-11-21T10:24:46;74.80;69.48;79.38;;
60872;Laerm;46714;50.118;14.462;2023-11-21T10:27:11;74.88;70.76;80.23;;
60872;Laerm;46714;50.118;14.462;2023-11-21T10:29:39;79.38;69.60;98.68;;
60872;Laerm;46714;50.118;14.462;2023-11-21T10:32:04;73.89;68.43;78.13;;
60872;Laerm;46714;50.118;14.462;2023-11-21T10:34:30;76.37;71.23;92.81;;
60872;Laerm;46714;50.118;14.462;2023-11-21T10:36:56;74.58;69.62;80.48;;
60872;Laerm;46714;50.118;14.462;2023-11-21T10:39:24;75.32;70.72;79.65;;
60872;Laerm;46714;50.118;14.462;2023-11-21T10:41:53;74.42;69.58;79.57;;
60872;Laerm;46714;50.118;14.462;2023-11-21T10:44:20;74.19;67.40;82.58;;
60872;Laerm;46714;50.118;14.462;2023-11-21T10:46:50;74.16;69.87;78.14;;
60872;Laerm;46714;50.118;14.462;2023-11-21T10:49:26;74.57;69.32;78.87;;
60872;Laerm;46714;50.118;14.462;2023-11-21T10:51:55;75.02;69.13;81.09;;
60872;Laerm;46714;50.118;14.462;2023-11-21T10:54:22;74.81;71.14;79.25;;
60872;Laerm;46714;50.118;14.462;2023-11-21T10:56:56;74.52;68.94;80.67;;
60872;Laerm;46714;50.118;14.462;2023-11-21T10:59:22;74.48;69.01;78.62;;
60872;Laerm;46714;50.118;14.462;2023-11-21T11:01:50;74.07;68.99;79.35;;
60872;Laerm;46714;50.118;14.462;2023-11-21T11:04:19;74.54;69.87;80.60;;
60872;Laerm;46714;50.118;14.462;2023-11-21T11:06:46;74.58;70.68;80.15;;
60872;Laerm;46714;50.118;14.462;2023-11-21T11:09:17;74.71;69.40;78.66;;
60872;Laerm;46714;50.118;14.462;2023-11-21T11:11:43;74.92;68.07;80.76;;
60872;Laerm;46714;50.118;14.462;2023-11-21T11:14:11;75.33;71.23;80.08;;
60872;Laerm;46714;50.118;14.462;2023-11-21T11:16:38;75.33;71.16;83.90;;
60872;Laerm;46714;50.118;14.462;2023-11-21T11:19:10;75.17;71.75;82.61;;
60872;Laerm;46714;50.118;14.462;2023-11-21T11:22:12;74.66;70.17;79.20;;
60872;Laerm;46714;50.118;14.462;2023-11-21T11:30:36;74.82;70.59;80.19;;
60872;Laerm;46714;50.118;14.462;2023-11-21T11:38:33;74.74;69.89;80.57;;
60872;Laerm;46714;50.118;14.462;2023-11-21T11:41:02;74.65;67.33;81.64;;
60872;Laerm;46714;50.118;14.462;2023-11-21T11:43:29;74.30;68.15;78.64;;
60872;Laerm;46714;50.118;14.462;2023-11-21T11:45:59;74.70;70.84;79.37;;
60872;Laerm;46714;50.118;14.462;2023-11-21T11:48:25;74.59;69.47;80.34;;
60872;Laerm;46714;50.118;14.462;2023-11-21T11:51:14;74.64;67.57;80.36;;
60872;Laerm;46714;50.118;14.462;2023-11-21T11:53:44;74.22;67.73;79.49;;
60872;Laerm;46714;50.118;14.462;2023-11-21T11:56:31;75.29;70.98;82.98;;
60872;Laerm;46714;50.118;14.462;2023-11-21T11:59:02;82.46;70.85;102.93;;
60872;Laerm;46714;50.118;14.462;2023-11-21T12:01:29;74.01;66.44;81.23;;
60872;Laerm;46714;50.118;14.462;2023-11-21T12:07:00;73.67;68.31;79.81;;
60872;Laerm;46714;50.118;14.462;2023-11-21T12:09:28;73.48;67.42;78.39;;
60872;Laerm;46714;50.118;14.462;2023-11-21T12:11:55;75.84;69.70;92.33;;
60872;Laerm;46714;50.118;14.462;2023-11-21T12:14:23;75.59;65.83;92.08;;
60872;Laerm;46714;50.118;14.462;2023-11-21T12:16:49;73.29;64.31;82.47;;
60872;Laerm;46714;50.118;14.462;2023-11-21T12:19:14;75.01;60.05;97.29;;
60872;Laerm;46714;50.118;14.462;2023-11-21T12:21:40;72.26;61.94;79.58;;
60872;Laerm;46714;50.118;14.462;2023-11-21T12:24:13;72.60;66.70;77.38;;
60872;Laerm;46714;50.118;14.462;2023-11-21T12:26:42;72.21;59.76;80.27;;
60872;Laerm;46714;50.118;14.462;2023-11-21T12:29:09;79.13;65.40;98.13;;
60872;Laerm;46714;50.118;14.462;2023-11-21T12:31:35;72.56;62.75;83.37;;
60872;Laerm;46714;50.118;14.462;2023-11-21T12:34:01;75.53;63.14;97.35;;
60872;Laerm;46714;50.118;14.462;2023-11-21T12:36:27;70.14;61.38;77.26;;
60872;Laerm;46714;50.118;14.462;2023-11-21T12:38:54;72.48;65.15;79.24;;
60872;Laerm;46714;50.118;14.462;2023-11-21T12:41:19;72.18;60.69;80.82;;
60872;Laerm;46714;50.118;14.462;2023-11-21T12:43:46;72.31;61.87;81.29;;
60872;Laerm;46714;50.118;14.462;2023-11-21T12:46:13;72.51;63.18;77.04;;
60872;Laerm;46714;50.118;14.462;2023-11-21T12:48:43;73.16;62.96;80.93;;
60872;Laerm;46714;50.118;14.462;2023-11-21T12:51:10;72.91;63.33;78.90;;
60872;Laerm;46714;50.118;14.462;2023-11-21T12:53:44;72.48;65.34;79.30;;
60872;Laerm;46714;50.118;14.462;2023-11-21T12:56:12;72.99;64.52;77.89;;
60872;Laerm;46714;50.118;14.462;2023-11-21T12:58:39;71.57;62.27;76.56;;
60872;Laerm;46714;50.118;14.462;2023-11-21T13:01:07;76.67;65.65;98.93;;
60872;Laerm;46714;50.118;14.462;2023-11-21T13:03:38;73.12;68.66;79.77;;
60872;Laerm;46714;50.118;14.462;2023-11-21T13:06:04;74.48;63.86;90.42;;
60872;Laerm;46714;50.118;14.462;2023-11-21T13:08:30;73.13;63.44;81.65;;
60872;Laerm;46714;50.118;14.462;2023-11-21T13:10:58;75.43;64.83;93.81;;
60872;Laerm;46714;50.118;14.462;2023-11-21T13:13:24;71.93;60.43;79.95;;
60872;Laerm;46714;50.118;14.462;2023-11-21T13:15:53;73.85;66.30;84.49;;
60872;Laerm;46714;50.118;14.462;2023-11-21T13:18:24;73.40;68.09;79.19;;
60872;Laerm;46714;50.118;14.462;2023-11-21T13:20:52;73.40;65.62;79.88;;
60872;Laerm;46714;50.118;14.462;2023-11-21T13:23:18;74.60;65.30;81.19;;
60872;Laerm;46714;50.118;14.462;2023-11-21T13:25:43;73.16;63.54;81.11;;
60872;Laerm;46714;50.118;14.462;2023-11-21T13:28:11;74.30;70.09;79.63;;
60872;Laerm;46714;50.118;14.462;2023-11-21T13:30:37;73.86;66.73;81.46;;
60872;Laerm;46714;50.118;14.462;2023-11-21T13:33:06;74.19;64.07;79.69;;
60872;Laerm;46714;50.118;14.462;2023-11-21T13:35:34;74.26;69.87;77.80;;
60872;Laerm;46714;50.118;14.462;2023-11-21T13:38:07;75.16;69.51;82.22;;
60872;Laerm;46714;50.118;14.462;2023-11-21T13:40:34;74.12;68.53;79.76;;
60872;Laerm;46714;50.118;14.462;2023-11-21T13:43:09;74.95;68.23;80.22;;
60872;Laerm;46714;50.118;14.462;2023-11-21T13:45:38;74.10;68.04;79.40;;